Latest Weather Observations for Essendon Airport
Issued at 12:11 am EST Thursday 3 September 2026 (issued every 10 minutes, with the page automatically refreshed every 10 minutes)
| Station Details | ID: 086038 | Name: ESSENDON AIRPORT | Lat: -37.73 | Lon: 144.91 | Height: 78.4 m |
| Date/Time EST |
Temp °C |
App Temp °C |
Dew Point °C |
Rel Hum % |
Delta-T °C |
Wind | Press QNH hPa |
Press MSL hPa |
Rain since 9am mm |
||||
|---|---|---|---|---|---|---|---|---|---|---|---|---|---|
| Dir | Spd km/h |
Gust km/h |
Spd kts |
Gust kts |
|||||||||
| 03/12:00am | 9.2 | 5.6 | 5.2 | 76 | 1.8 | N | 13 | 13 | 7 | 7 | 1011.1 | 1011.2 | 0.0 |
| Date/Time EST |
Temp °C |
App Temp °C |
Dew Point °C |
Rel Hum % |
Delta-T °C |
Wind | Press QNH hPa |
Press MSL hPa |
Rain since 9am mm |
||||
|---|---|---|---|---|---|---|---|---|---|---|---|---|---|
| Dir | Spd km/h |
Gust km/h |
Spd kts |
Gust kts |
|||||||||
| 02/11:30pm | 9.6 | 6.5 | 5.4 | 75 | 1.9 | N | 11 | 15 | 6 | 8 | 1011.2 | 1011.3 | 0.0 |
| 02/11:00pm | 10.1 | 6.6 | 5.3 | 72 | 2.2 | N | 13 | 15 | 7 | 8 | 1011.5 | 1011.6 | 0.0 |
| 02/10:30pm | 10.4 | 7.6 | 5.0 | 69 | 2.5 | N | 9 | 11 | 5 | 6 | 1011.8 | 1011.9 | 0.0 |
| 02/10:00pm | 10.9 | 7.3 | 4.8 | 66 | 2.8 | N | 13 | 15 | 7 | 8 | 1012.3 | 1012.4 | 0.0 |
| 02/09:30pm | 11.8 | 7.7 | 4.3 | 60 | 3.4 | NNW | 15 | 19 | 8 | 10 | 1012.1 | 1012.2 | 0.0 |
| 02/09:00pm | 12.3 | 7.3 | 4.5 | 59 | 3.6 | NNW | 20 | 26 | 11 | 14 | 1012.3 | 1012.4 | 0.0 |
| 02/08:30pm | 12.8 | 7.8 | 4.8 | 58 | 3.7 | NW | 20 | 30 | 11 | 16 | 1012.2 | 1012.3 | 0.0 |
| 02/08:00pm | 13.4 | 8.8 | 6.5 | 63 | 3.3 | NNW | 20 | 28 | 11 | 15 | 1011.9 | 1012.0 | 0.0 |
| 02/07:30pm | 14.0 | 10.4 | 6.8 | 62 | 3.5 | NNW | 15 | 26 | 8 | 14 | 1011.7 | 1011.8 | 0.0 |
| 02/07:00pm | 13.5 | 11.6 | 6.8 | 64 | 3.2 | ESE | 6 | 9 | 3 | 5 | 1011.5 | 1011.6 | 0.0 |
| 02/06:30pm | 12.8 | 10.4 | 6.8 | 67 | 2.9 | ESE | 9 | 11 | 5 | 6 | 1011.3 | 1011.4 | 0.0 |
| 02/06:00pm | 13.3 | 10.9 | 7.1 | 66 | 3.0 | ESE | 9 | 13 | 5 | 7 | 1011.2 | 1011.3 | 0.0 |
| 02/05:30pm | 14.0 | 11.7 | 7.3 | 64 | 3.3 | SE | 9 | 13 | 5 | 7 | 1011.1 | 1011.2 | 0.0 |
| 02/05:00pm | 15.0 | 12.8 | 7.8 | 62 | 3.6 | SSE | 9 | 11 | 5 | 6 | 1011.2 | 1011.3 | 0.0 |
| 02/04:30pm | 14.8 | 11.7 | 7.4 | 61 | 3.7 | SSE | 13 | 15 | 7 | 8 | 1011.4 | 1011.5 | 0.0 |
| 02/04:00pm | 15.5 | 12.5 | 7.5 | 59 | 4.0 | SSE | 13 | 17 | 7 | 9 | 1011.6 | 1011.7 | 0.0 |
| 02/03:30pm | 15.3 | 11.4 | 7.3 | 59 | 4.0 | SSE | 17 | 22 | 9 | 12 | 1011.9 | 1012.0 | 0.0 |
| 02/03:00pm | 16.3 | 12.6 | 8.0 | 58 | 4.2 | S | 17 | 20 | 9 | 11 | 1011.9 | 1012.0 | 0.0 |
| 02/02:30pm | 16.7 | 14.7 | 8.7 | 59 | 4.1 | SSW | 9 | 15 | 5 | 8 | 1012.0 | 1012.1 | 0.0 |
| 02/02:00pm | 16.6 | 14.8 | 9.3 | 62 | 3.8 | SW | 9 | 15 | 5 | 8 | 1012.2 | 1012.3 | 0.0 |
| 02/01:30pm | 16.3 | 14.6 | 8.3 | 59 | 4.1 | W | 7 | 13 | 4 | 7 | 1012.6 | 1012.7 | 0.0 |
| 02/01:00pm | 15.9 | 14.3 | 8.2 | 60 | 3.9 | W | 6 | 11 | 3 | 6 | 1013.2 | 1013.3 | 0.0 |
| 02/12:30pm | 15.0 | 13.2 | 7.8 | 62 | 3.6 | SW | 7 | 13 | 4 | 7 | 1014.0 | 1014.1 | 0.0 |
| 02/12:00pm | 15.1 | 13.1 | 8.6 | 65 | 3.3 | WSW | 9 | 15 | 5 | 8 | 1014.3 | 1014.4 | 0.0 |
| 02/11:30am | 15.0 | 13.2 | 8.0 | 63 | 3.5 | NNW | 7 | 13 | 4 | 7 | 1014.7 | 1014.8 | 0.0 |
| 02/11:00am | 14.1 | 11.4 | 7.2 | 63 | 3.4 | WSW | 11 | 19 | 6 | 10 | 1015.2 | 1015.2 | 0.0 |
| 02/10:30am | 13.2 | 10.4 | 7.0 | 66 | 3.0 | W | 11 | 17 | 6 | 9 | 1015.4 | 1015.4 | 0.0 |
| 02/10:00am | 13.1 | 9.2 | 7.1 | 67 | 2.9 | WSW | 17 | 22 | 9 | 12 | 1015.7 | 1015.7 | 0.0 |
| 02/09:30am | 13.1 | 9.7 | 7.5 | 69 | 2.7 | W | 15 | 20 | 8 | 11 | 1015.7 | 1015.7 | 0.0 |
| 02/09:00am | 12.5 | 8.0 | 7.0 | 69 | 2.7 | WSW | 20 | 28 | 11 | 15 | 1015.7 | 1015.7 | 0.0 |
| 02/08:30am | 12.3 | 8.5 | 7.4 | 72 | 2.4 | WSW | 17 | 24 | 9 | 13 | 1015.8 | 1015.8 | 0.0 |
| 02/08:00am | 12.0 | 8.3 | 8.1 | 77 | 1.9 | WSW | 17 | 24 | 9 | 13 | 1015.4 | 1015.4 | 0.0 |
| 02/07:30am | 11.9 | 9.1 | 8.6 | 80 | 1.6 | SW | 13 | 15 | 7 | 8 | 1014.8 | 1014.9 | 0.0 |
| 02/07:00am | 11.8 | 8.6 | 8.6 | 81 | 1.6 | WSW | 15 | 19 | 8 | 10 | 1014.7 | 1014.8 | 0.0 |
| 02/06:30am | 11.9 | 9.2 | 8.9 | 82 | 1.5 | WSW | 13 | 15 | 7 | 8 | 1014.3 | 1014.4 | 0.0 |
| 02/06:00am | 11.8 | 8.8 | 9.2 | 84 | 1.3 | WSW | 15 | 24 | 8 | 13 | 1014.0 | 1014.1 | 0.0 |
| 02/05:30am | 11.9 | 8.2 | 9.5 | 85 | 1.2 | WSW | 19 | 24 | 10 | 13 | 1013.9 | 1014.0 | 0.0 |
| 02/05:00am | 12.5 | 8.7 | 9.1 | 80 | 1.7 | WSW | 19 | 30 | 10 | 16 | 1013.6 | 1013.7 | 0.0 |
| 02/04:45am | 12.6 | 9.4 | 9.8 | 83 | 1.4 | WSW | 17 | 24 | 9 | 13 | 1013.3 | 1013.4 | 0.0 |
| 02/04:32am | 12.7 | 9.0 | 10.2 | 85 | 1.3 | WSW | 20 | 30 | 11 | 16 | 1013.3 | 1013.4 | 0.0 |
| 02/04:30am | 12.8 | 9.3 | 10.3 | 85 | 1.3 | WSW | 19 | 30 | 10 | 16 | 1013.3 | 1013.4 | 0.0 |
| 02/04:00am | 13.6 | 8.8 | 10.4 | 81 | 1.7 | WSW | 26 | 32 | 14 | 17 | 1012.7 | 1012.8 | 0.0 |
| 02/03:30am | 15.7 | 12.7 | 10.7 | 72 | 2.7 | NNW | 17 | 22 | 9 | 12 | 1012.3 | 1012.4 | 0.0 |
| 02/03:00am | 15.6 | 12.6 | 10.6 | 72 | 2.7 | NNW | 17 | 20 | 9 | 11 | 1012.2 | 1012.3 | 0.0 |
| 02/02:30am | 15.8 | 12.4 | 10.6 | 71 | 2.8 | NNW | 19 | 22 | 10 | 12 | 1012.5 | 1012.6 | 0.0 |
| 02/02:00am | 15.5 | 11.8 | 10.3 | 71 | 2.7 | NNW | 20 | 26 | 11 | 14 | 1012.7 | 1012.8 | 0.0 |
| 02/01:30am | 15.6 | 11.9 | 10.2 | 70 | 2.8 | NNW | 20 | 30 | 11 | 16 | 1012.6 | 1012.7 | 0.0 |
| 02/01:00am | 16.0 | 11.5 | 9.9 | 67 | 3.2 | NNW | 24 | 32 | 13 | 17 | 1012.6 | 1012.7 | 0.0 |
| 02/12:30am | 16.6 | 11.7 | 9.8 | 64 | 3.6 | NW | 26 | 35 | 14 | 19 | 1012.6 | 1012.7 | 0.0 |
| 02/12:00am | 16.7 | 12.1 | 9.6 | 63 | 3.7 | NW | 24 | 32 | 13 | 17 | 1012.6 | 1012.7 | 0.0 |
| Date/Time EST |
Temp °C |
App Temp °C |
Dew Point °C |
Rel Hum % |
Delta-T °C |
Wind | Press QNH hPa |
Press MSL hPa |
Rain since 9am mm |
||||
|---|---|---|---|---|---|---|---|---|---|---|---|---|---|
| Dir | Spd km/h |
Gust km/h |
Spd kts |
Gust kts |
|||||||||
| 01/11:42pm | 16.9 | 11.5 | 9.6 | 62 | 3.8 | NNW | 28 | 41 | 15 | 22 | 1012.6 | 1012.7 | 0.0 |
| 01/11:30pm | 17.1 | 10.4 | 9.5 | 61 | 4.0 | NNW | 35 | 54 | 19 | 29 | 1012.6 | 1012.7 | 0.0 |
| 01/11:23pm | 16.9 | 10.5 | 9.3 | 61 | 4.0 | NNW | 33 | 54 | 18 | 29 | 1012.6 | 1012.7 | 0.0 |
| 01/11:00pm | 17.3 | 10.9 | 9.2 | 59 | 4.2 | NNW | 33 | 46 | 18 | 25 | 1012.5 | 1012.6 | 0.0 |
| 01/10:30pm | 17.5 | 12.3 | 8.9 | 57 | 4.5 | N | 26 | 41 | 14 | 22 | 1012.8 | 1012.9 | 0.0 |
| 01/10:00pm | 17.9 | 11.9 | 8.7 | 55 | 4.8 | NNW | 30 | 39 | 16 | 21 | 1012.8 | 1012.9 | 0.0 |
| 01/09:48pm | 18.1 | 11.6 | 8.9 | 55 | 4.8 | NNW | 33 | 52 | 18 | 28 | 1012.8 | 1012.9 | 0.0 |
| 01/09:30pm | 18.3 | 11.4 | 8.8 | 54 | 5.0 | NNW | 35 | 50 | 19 | 27 | 1012.8 | 1012.9 | 0.0 |
| 01/09:00pm | 18.3 | 12.8 | 9.1 | 55 | 4.8 | NNW | 28 | 43 | 15 | 23 | 1012.7 | 1012.8 | 0.0 |
| 01/08:30pm | 17.9 | 12.9 | 9.5 | 58 | 4.4 | N | 26 | 35 | 14 | 19 | 1012.5 | 1012.6 | 0.0 |
| 01/08:14pm | 18.3 | 11.8 | 8.8 | 54 | 5.0 | NNW | 33 | 50 | 18 | 27 | 1012.8 | 1012.9 | 0.0 |
| 01/08:04pm | 18.8 | 12.4 | 8.5 | 51 | 5.4 | N | 32 | 50 | 17 | 27 | 1012.6 | 1012.7 | 0.0 |
| 01/08:00pm | 18.8 | 12.8 | 8.5 | 51 | 5.4 | N | 30 | 43 | 16 | 23 | 1012.5 | 1012.6 | 0.0 |
| 01/07:30pm | 18.7 | 13.8 | 8.4 | 51 | 5.3 | N | 24 | 33 | 13 | 18 | 1012.5 | 1012.6 | 0.0 |
| 01/07:00pm | 18.9 | 13.6 | 8.3 | 50 | 5.5 | N | 26 | 32 | 14 | 17 | 1012.8 | 1012.9 | 0.0 |
| 01/06:30pm | 18.9 | 13.9 | 8.0 | 49 | 5.6 | N | 24 | 33 | 13 | 18 | 1013.1 | 1013.2 | 0.0 |
| 01/06:00pm | 19.0 | 14.4 | 8.1 | 49 | 5.6 | N | 22 | 33 | 12 | 18 | 1013.5 | 1013.6 | 0.0 |
| 01/05:30pm | 19.5 | 14.8 | 7.6 | 46 | 6.1 | N | 22 | 32 | 12 | 17 | 1013.8 | 1013.9 | 0.0 |
| 01/05:00pm | 19.7 | 13.4 | 7.4 | 45 | 6.3 | NNW | 30 | 43 | 16 | 23 | 1013.6 | 1013.7 | 0.0 |
| 01/04:30pm | 19.9 | 14.0 | 7.3 | 44 | 6.4 | NNW | 28 | 35 | 15 | 19 | 1013.8 | 1013.9 | 0.0 |
| 01/04:00pm | 20.2 | 13.8 | 6.9 | 42 | 6.8 | N | 30 | 41 | 16 | 22 | 1013.4 | 1013.5 | 0.0 |
| 01/03:40pm | 20.2 | 13.4 | 7.6 | 44 | 6.5 | N | 33 | 44 | 18 | 24 | 1013.2 | 1013.3 | 0.0 |
| 01/03:30pm | 20.4 | 13.6 | 7.7 | 44 | 6.6 | N | 33 | 52 | 18 | 28 | 1013.1 | 1013.2 | 0.0 |
| 01/03:20pm | 20.7 | 12.8 | 7.7 | 43 | 6.7 | N | 39 | 57 | 21 | 31 | 1013.2 | 1013.3 | 0.0 |
| 01/03:09pm | 21.0 | 12.9 | 6.9 | 40 | 7.2 | N | 39 | 54 | 21 | 29 | 1013.2 | 1013.3 | 0.0 |
| 01/03:00pm | 21.2 | 12.4 | 7.1 | 40 | 7.2 | N | 43 | 59 | 23 | 32 | 1013.5 | 1013.6 | 0.0 |
| 01/02:51pm | 21.1 | 13.4 | 7.0 | 40 | 7.2 | N | 37 | 59 | 20 | 32 | 1013.4 | 1013.5 | 0.0 |
| 01/02:30pm | 21.0 | 13.9 | 8.0 | 43 | 6.8 | N | 35 | 48 | 19 | 26 | 1014.0 | 1014.1 | 0.0 |
| 01/02:25pm | 21.0 | 14.0 | 8.3 | 44 | 6.7 | N | 35 | 48 | 19 | 26 | 1014.1 | 1014.2 | 0.0 |
| 01/02:03pm | 20.8 | 13.0 | 8.1 | 44 | 6.6 | NNW | 39 | 57 | 21 | 31 | 1014.4 | 1014.5 | 0.0 |
| 01/02:00pm | 20.9 | 12.7 | 8.2 | 44 | 6.6 | N | 41 | 57 | 22 | 31 | 1014.4 | 1014.5 | 0.0 |
| 01/01:58pm | 21.0 | 12.9 | 8.6 | 45 | 6.5 | N | 41 | 57 | 22 | 31 | 1014.5 | 1014.6 | 0.0 |
| 01/01:30pm | 20.4 | 11.9 | 7.1 | 42 | 6.8 | NNW | 41 | 63 | 22 | 34 | 1014.7 | 1014.8 | 0.0 |
| 01/01:00pm | 20.7 | 13.4 | 7.3 | 42 | 6.9 | NNW | 35 | 50 | 19 | 27 | 1015.6 | 1015.6 | 0.0 |
| 01/12:30pm | 20.4 | 11.4 | 6.4 | 40 | 7.1 | N | 43 | 63 | 23 | 34 | 1016.2 | 1016.2 | 0.0 |
| 01/12:09pm | 20.5 | 11.7 | 7.2 | 42 | 6.8 | N | 43 | 63 | 23 | 34 | 1016.8 | 1016.8 | 0.0 |
| 01/12:00pm | 20.5 | 12.1 | 7.2 | 42 | 6.8 | N | 41 | 56 | 22 | 30 | 1017.0 | 1017.0 | 0.0 |
| 01/11:50am | 20.4 | 12.5 | 7.7 | 44 | 6.6 | N | 39 | 54 | 21 | 29 | 1017.2 | 1017.2 | 0.0 |
| 01/11:30am | 20.1 | 12.6 | 8.1 | 46 | 6.2 | N | 37 | 56 | 20 | 30 | 1016.9 | 1016.9 | 0.0 |
| 01/11:04am | 18.8 | 12.5 | 9.0 | 53 | 5.1 | N | 32 | 57 | 17 | 31 | 1017.3 | 1017.3 | 0.0 |
| 01/11:00am | 18.6 | 13.0 | 8.8 | 53 | 5.1 | N | 28 | 44 | 15 | 24 | 1017.4 | 1017.4 | 0.0 |
| 01/10:30am | 17.3 | 11.0 | 9.7 | 61 | 4.0 | N | 33 | 48 | 18 | 26 | 1018.5 | 1018.5 | 0.0 |
| 01/10:21am | 16.7 | 9.8 | 8.9 | 60 | 4.0 | N | 35 | 50 | 19 | 27 | 1018.6 | 1018.6 | 0.0 |
| 01/10:05am | 16.5 | 8.9 | 9.0 | 61 | 3.9 | N | 39 | 63 | 21 | 34 | 1018.8 | 1018.8 | 0.0 |
| 01/10:00am | 16.3 | 8.7 | 9.0 | 62 | 3.8 | NNE | 39 | 63 | 21 | 34 | 1018.8 | 1018.8 | 0.0 |
| 01/09:55am | 16.2 | 9.3 | 8.9 | 62 | 3.8 | NNE | 35 | 61 | 19 | 33 | 1018.9 | 1019.0 | 0.0 |
| 01/09:30am | 15.7 | 9.9 | 9.4 | 66 | 3.3 | NNE | 30 | 39 | 16 | 21 | 1019.7 | 1019.8 | 0.0 |
| 01/09:00am | 15.0 | 9.6 | 9.6 | 70 | 2.8 | NNE | 28 | 41 | 15 | 22 | 1020.5 | 1020.6 | 0.0 |
| 01/08:30am | 14.4 | 9.9 | 10.0 | 75 | 2.3 | N | 24 | 32 | 13 | 17 | 1020.9 | 1021.0 | 0.0 |
| 01/08:00am | 13.6 | 9.0 | 9.8 | 78 | 2.0 | N | 24 | 37 | 13 | 20 | 1021.0 | 1021.1 | 0.0 |
| 01/07:30am | 12.8 | 9.2 | 9.8 | 82 | 1.5 | N | 19 | 30 | 10 | 16 | 1020.9 | 1021.0 | 0.0 |
| 01/07:00am | 12.3 | 7.7 | 9.7 | 84 | 1.3 | NNE | 24 | 33 | 13 | 18 | 1020.7 | 1020.8 | 0.0 |
| 01/06:30am | 12.3 | 8.1 | 9.9 | 85 | 1.2 | N | 22 | 35 | 12 | 19 | 1020.8 | 1020.9 | 0.0 |
| 01/06:00am | 12.7 | 8.6 | 10.1 | 84 | 1.3 | N | 22 | 30 | 12 | 16 | 1020.9 | 1021.0 | 0.0 |
| 01/05:30am | 12.6 | 8.9 | 10.3 | 86 | 1.2 | NNE | 20 | 32 | 11 | 17 | 1021.0 | 1021.1 | 0.0 |
| 01/05:00am | 13.0 | 9.1 | 10.7 | 86 | 1.2 | NNE | 22 | 30 | 12 | 16 | 1021.1 | 1021.2 | 0.0 |
| 01/04:30am | 13.1 | 9.6 | 10.8 | 86 | 1.2 | NNE | 20 | 33 | 11 | 18 | 1021.3 | 1021.4 | 0.0 |
| 01/04:00am | 13.1 | 8.9 | 11.0 | 87 | 1.1 | N | 24 | 32 | 13 | 17 | 1021.9 | 1022.0 | 0.0 |
| 01/03:30am | 13.2 | 10.8 | 11.3 | 88 | 1.0 | N | 15 | 22 | 8 | 12 | 1022.0 | 1022.1 | 0.0 |
| 01/03:00am | 12.8 | 9.3 | 11.0 | 89 | 0.9 | N | 20 | 26 | 11 | 14 | 1022.6 | 1022.7 | 0.0 |
| 01/02:30am | 12.5 | 9.6 | 10.9 | 90 | 0.8 | N | 17 | 20 | 9 | 11 | 1022.9 | 1023.0 | 0.0 |
| 01/02:00am | 12.6 | 10.4 | 10.7 | 88 | 1.0 | N | 13 | 19 | 7 | 10 | 1023.5 | 1023.6 | 0.0 |
| 01/01:30am | 12.7 | 10.1 | 10.8 | 88 | 1.0 | N | 15 | 19 | 8 | 10 | 1023.7 | 1023.8 | 0.0 |
| 01/01:00am | 12.6 | 9.5 | 10.3 | 86 | 1.2 | N | 17 | 22 | 9 | 12 | 1023.9 | 1024.0 | 0.0 |
| 01/12:30am | 12.3 | 9.9 | 9.9 | 85 | 1.2 | N | 13 | 17 | 7 | 9 | 1024.3 | 1024.4 | 0.0 |
| 01/12:00am | 12.5 | 8.2 | 9.5 | 82 | 1.5 | N | 22 | 28 | 12 | 15 | 1024.7 | 1024.8 | 0.0 |
| Date/Time EST |
Temp °C |
App Temp °C |
Dew Point °C |
Rel Hum % |
Delta-T °C |
Wind | Press QNH hPa |
Press MSL hPa |
Rain since 9am mm |
||||
|---|---|---|---|---|---|---|---|---|---|---|---|---|---|
| Dir | Spd km/h |
Gust km/h |
Spd kts |
Gust kts |
|||||||||
| 31/11:30pm | 11.9 | 8.8 | 8.9 | 82 | 1.5 | N | 15 | 19 | 8 | 10 | 1025.2 | 1025.3 | 0.0 |
| 31/11:00pm | 12.1 | 8.3 | 8.9 | 81 | 1.6 | N | 19 | 24 | 10 | 13 | 1025.7 | 1025.9 | 0.0 |
| 31/10:30pm | 12.2 | 9.3 | 8.3 | 77 | 1.9 | N | 13 | 17 | 7 | 9 | 1025.9 | 1026.1 | 0.0 |
| 31/10:00pm | 12.7 | 9.0 | 8.0 | 73 | 2.3 | N | 17 | 19 | 9 | 10 | 1026.1 | 1026.3 | 0.0 |
| 31/09:30pm | 12.5 | 10.6 | 9.0 | 79 | 1.8 | N | 9 | 11 | 5 | 6 | 1026.4 | 1026.6 | 0.0 |
| 31/09:00pm | 12.2 | 10.6 | 8.9 | 80 | 1.6 | S | 7 | 7 | 4 | 4 | 1026.5 | 1026.7 | 0.0 |
| 31/08:30pm | 12.1 | 10.7 | 8.9 | 81 | 1.6 | S | 6 | 7 | 3 | 4 | 1026.7 | 1026.9 | 0.0 |
| 31/08:00pm | 11.6 | 11.2 | 8.3 | 80 | 1.6 | CALM | 0 | 0 | 0 | 0 | 1026.7 | 1026.9 | 0.0 |
| 31/07:30pm | 12.1 | 11.7 | 8.4 | 78 | 1.8 | CALM | 0 | 0 | 0 | 0 | 1026.9 | 1027.1 | 0.0 |
| 31/07:00pm | 11.7 | 10.2 | 8.4 | 80 | 1.6 | S | 6 | 7 | 3 | 4 | 1027.1 | 1027.3 | 0.0 |
| 31/06:30pm | 12.0 | 10.3 | 8.5 | 79 | 1.7 | S | 7 | 9 | 4 | 5 | 1027.1 | 1027.3 | 0.0 |
| 31/06:00pm | 13.5 | 12.1 | 9.0 | 74 | 2.3 | S | 6 | 9 | 3 | 5 | 1027.0 | 1027.2 | 0.0 |
| 31/05:30pm | 15.1 | 13.2 | 9.2 | 68 | 3.0 | S | 9 | 11 | 5 | 6 | 1027.0 | 1027.2 | 0.0 |
| 31/05:00pm | 16.5 | 14.8 | 9.9 | 65 | 3.5 | S | 9 | 13 | 5 | 7 | 1027.1 | 1027.3 | 0.0 |
| 31/04:30pm | 17.3 | 15.6 | 9.7 | 61 | 4.0 | S | 9 | 13 | 5 | 7 | 1027.4 | 1027.6 | 0.0 |
| 31/04:00pm | 17.6 | 15.4 | 9.2 | 58 | 4.4 | S | 11 | 15 | 6 | 8 | 1027.6 | 1027.8 | 0.0 |
| 31/03:30pm | 18.4 | 16.5 | 9.2 | 55 | 4.8 | SSW | 9 | 17 | 5 | 9 | 1027.7 | 1027.9 | 0.0 |
| 31/03:00pm | 17.9 | 16.7 | 8.2 | 53 | 5.0 | WSW | 4 | 9 | 2 | 5 | 1028.1 | 1028.3 | 0.0 |
| 31/02:30pm | 17.3 | 15.6 | 8.4 | 56 | 4.6 | SSW | 7 | 11 | 4 | 6 | 1028.7 | 1028.8 | 0.0 |
| 31/02:00pm | 16.9 | 15.7 | 9.6 | 62 | 3.8 | SSW | 6 | 11 | 3 | 6 | 1029.2 | 1029.3 | 0.0 |
| 31/01:30pm | 16.5 | 14.9 | 8.7 | 60 | 4.0 | SSE | 7 | 13 | 4 | 7 | 1029.7 | 1029.8 | 0.0 |
| 31/01:00pm | 15.5 | 13.5 | 8.7 | 64 | 3.4 | SSE | 9 | 15 | 5 | 8 | 1030.2 | 1030.3 | 0.0 |
| 31/12:30pm | 15.1 | 13.1 | 8.6 | 65 | 3.3 | SSW | 9 | 13 | 5 | 7 | 1030.7 | 1030.8 | 0.0 |
| 31/12:00pm | 14.9 | 13.2 | 9.7 | 71 | 2.7 | SSE | 9 | 17 | 5 | 9 | 1031.3 | 1031.4 | 0.0 |
| 31/11:30am | 14.2 | 11.8 | 8.8 | 70 | 2.7 | S | 11 | 15 | 6 | 8 | 1031.7 | 1031.8 | 0.0 |
| 31/11:00am | 13.9 | 12.0 | 9.1 | 73 | 2.4 | S | 9 | 17 | 5 | 9 | 1031.9 | 1032.0 | 0.0 |
| 31/10:30am | 13.4 | 12.0 | 8.9 | 74 | 2.3 | S | 6 | 11 | 3 | 6 | 1032.1 | 1032.2 | 0.0 |
| 31/10:13am | 13.1 | 11.6 | 8.4 | 73 | 2.3 | SE | 6 | 11 | 3 | 6 | 1032.2 | 1032.3 | 0.0 |
| 31/10:00am | 13.3 | 11.3 | 8.6 | 73 | 2.3 | SSE | 9 | 13 | 5 | 7 | 1032.2 | 1032.3 | 0.0 |
| 31/09:30am | 12.7 | 10.7 | 8.8 | 77 | 2.0 | E | 9 | 13 | 5 | 7 | 1032.3 | 1032.4 | 0.0 |
| 31/09:00am | 11.5 | 10.0 | 8.4 | 81 | 1.5 | ESE | 6 | 9 | 3 | 5 | 1032.2 | 1032.3 | 0.0 |
| 31/08:30am | 11.1 | 10.8 | 8.8 | 86 | 1.1 | CALM | 0 | 7 | 0 | 4 | 1032.4 | 1032.5 | 0.0 |
| 31/08:00am | 10.7 | 9.3 | 9.0 | 89 | 0.8 | SSW | 6 | 9 | 3 | 5 | 1032.3 | 1032.4 | 0.0 |
| 31/07:30am | 10.6 | 9.4 | 9.4 | 92 | 0.6 | WSW | 6 | 7 | 3 | 4 | 1032.3 | 1032.4 | 0.0 |
| 31/07:00am | 10.4 | 9.5 | 9.2 | 92 | 0.6 | SW | 4 | 6 | 2 | 3 | 1032.1 | 1032.2 | 0.0 |
| 31/06:30am | 10.2 | 8.9 | 9.1 | 93 | 0.5 | SW | 6 | 7 | 3 | 4 | 1032.1 | 1032.2 | 0.0 |
| 31/06:05am | 10.2 | 8.8 | 9.0 | 92 | 0.6 | SW | 6 | 7 | 3 | 4 | 1031.9 | 1032.0 | 0.0 |
| 31/06:00am | 10.2 | 8.8 | 9.0 | 92 | 0.6 | SW | 6 | 7 | 3 | 4 | 1031.9 | 1032.0 | 0.0 |
| 31/05:30am | 10.2 | 8.7 | 9.0 | 92 | 0.6 | SW | 7 | 9 | 4 | 5 | 1031.9 | 1032.0 | 0.0 |
| 31/05:00am | 10.6 | 8.7 | 9.2 | 91 | 0.7 | SSW | 9 | 13 | 5 | 7 | 1031.9 | 1032.0 | 0.0 |
| 31/04:30am | 10.7 | 9.3 | 9.5 | 92 | 0.6 | SW | 7 | 9 | 4 | 5 | 1031.9 | 1032.0 | 0.0 |
| 31/04:00am | 10.9 | 10.9 | 9.7 | 92 | 0.6 | CALM | 0 | 0 | 0 | 0 | 1031.9 | 1032.0 | 0.0 |
| 31/03:30am | 10.9 | 10.1 | 9.7 | 92 | 0.6 | SW | 4 | 6 | 2 | 3 | 1032.1 | 1032.2 | 0.0 |
| 31/03:00am | 11.0 | 10.5 | 9.4 | 90 | 0.8 | SW | 2 | 6 | 1 | 3 | 1032.2 | 1032.3 | 0.0 |
| 31/02:42am | 10.9 | 10.1 | 9.5 | 91 | 0.7 | SW | 4 | 7 | 2 | 4 | 1032.3 | 1032.4 | 0.0 |
| 31/02:30am | 11.0 | 10.9 | 9.4 | 90 | 0.8 | CALM | 0 | 0 | 0 | 0 | 1032.4 | 1032.5 | 0.0 |
| 31/02:00am | 10.9 | 10.7 | 9.2 | 89 | 0.8 | CALM | 0 | 0 | 0 | 0 | 1032.5 | 1032.6 | 0.0 |
| 31/01:30am | 10.9 | 10.7 | 9.2 | 89 | 0.9 | CALM | 0 | 0 | 0 | 0 | 1032.6 | 1032.7 | 0.0 |
| 31/01:00am | 10.8 | 10.6 | 9.2 | 90 | 0.8 | CALM | 0 | 0 | 0 | 0 | 1032.7 | 1032.8 | 0.0 |
| 31/12:30am | 10.6 | 9.2 | 8.9 | 89 | 0.8 | SW | 6 | 7 | 3 | 4 | 1032.7 | 1032.8 | 0.0 |
Latest Capital City Observations: Canberra | Sydney | Melbourne | Brisbane | Adelaide | Perth | Hobart | Darwin
Other formats
Comma delimited format used in spreadsheet applications
http://www.bom.gov.au/fwo/IDV60901/IDV60901.95866.axf
JavaScript Object Notation format (JSON) in row-major order
http://www.bom.gov.au/fwo/IDV60901/IDV60901.95866.json
Data quality
Most of these data are generated automatically and are frequently updated. Quality checks on data are not normally performed. It is possible for incorrect values to appear. Refer to information at About Latest Weather Observations and please check the disclaimer before using these data.
